Time;durP1;ratioP1;P1;durP2;ratioP2;P2;SDS_P1;SDS_P2;PMS_P1;PMS_P2;Temp;Humidity;BMP_temperature;BMP_pressure;BME280_temperature;BME280_humidity;BME280_pressure;Samples;Min_cycle;Max_cycle;Signal;HPM_P1;HPM_P2
2022/02/17 00:02:07;;;;;;;1.00;0.90;;;12.10;99.90;;;;;;5128374;28;20387;-80
2022/02/17 00:04:53;;;;;;;0.90;0.90;;;12.10;99.90;;;;;;5129951;28;20439;-79
2022/02/17 00:07:38;;;;;;;1.30;1.20;;;12.10;99.90;;;;;;5129797;28;20446;-79
2022/02/17 00:10:25;;;;;;;1.33;1.23;;;12.10;99.90;;;;;;5129075;28;20393;-81
2022/02/17 00:13:09;;;;;;;0.90;0.90;;;12.10;99.90;;;;;;5129823;28;20391;-79
2022/02/17 00:15:53;;;;;;;1.20;1.07;;;12.10;99.90;;;;;;5130345;28;20395;-79
2022/02/17 00:18:39;;;;;;;1.33;1.20;;;12.20;99.90;;;;;;5128647;28;20414;-79
2022/02/17 00:21:23;;;;;;;2.80;1.13;;;12.20;99.90;;;;;;5128352;28;20409;-80
2022/02/17 00:24:08;;;;;;;2.77;1.30;;;12.20;99.90;;;;;;5128140;28;20891;-80
2022/02/17 00:26:52;;;;;;;0.90;0.90;;;12.20;99.90;;;;;;5122514;28;20384;-81
2022/02/17 00:29:37;;;;;;;0.97;0.97;;;12.30;99.90;;;;;;5120810;28;20387;-81
2022/02/17 00:32:21;;;;;;;1.07;0.97;;;12.30;99.90;;;;;;5120878;28;20382;-81
2022/02/17 00:35:08;;;;;;;0.90;0.90;;;12.40;99.90;;;;;;5120896;28;20384;-80
2022/02/17 00:37:53;;;;;;;0.90;0.90;;;12.40;99.90;;;;;;5121037;28;20458;-80
2022/02/17 00:40:37;;;;;;;0.90;0.90;;;12.40;99.90;;;;;;5105686;28;20426;-81
2022/02/17 00:43:22;;;;;;;1.10;1.00;;;12.30;99.90;;;;;;5120712;28;20467;-80
2022/02/17 00:46:07;;;;;;;0.90;0.90;;;12.30;99.90;;;;;;5120365;28;20387;-80
2022/02/17 00:48:51;;;;;;;2.23;1.00;;;12.40;99.90;;;;;;5120341;28;20430;-81
2022/02/17 00:51:35;;;;;;;1.13;1.03;;;12.40;99.90;;;;;;5120783;28;20924;-80
2022/02/17 00:54:20;;;;;;;0.90;0.90;;;12.30;99.90;;;;;;5120230;28;20391;-81
2022/02/17 00:57:04;;;;;;;1.20;1.10;;;12.40;99.90;;;;;;5105081;28;20384;-80
2022/02/17 00:59:49;;;;;;;1.10;1.00;;;12.50;99.90;;;;;;5120136;28;20391;-80
2022/02/17 01:02:33;;;;;;;0.80;0.80;;;12.50;99.90;;;;;;5120237;28;20389;-81
2022/02/17 01:05:17;;;;;;;0.90;0.90;;;12.50;99.90;;;;;;5119313;28;20465;-80
2022/02/17 01:08:02;;;;;;;1.00;0.90;;;12.40;99.90;;;;;;5120014;28;20446;-81
2022/02/17 01:10:48;;;;;;;1.03;0.93;;;12.40;99.90;;;;;;5105301;28;20403;-80
2022/02/17 01:13:32;;;;;;;1.00;0.90;;;12.50;99.90;;;;;;5120018;28;20429;-80
2022/02/17 01:16:16;;;;;;;0.80;0.80;;;12.40;99.90;;;;;;5119844;28;20447;-80
2022/02/17 01:19:01;;;;;;;1.10;1.00;;;12.40;99.90;;;;;;5120231;28;20391;-80
2022/02/17 01:21:45;;;;;;;0.90;0.90;;;12.40;99.90;;;;;;5104265;28;20439;-80
2022/02/17 01:24:30;;;;;;;1.00;0.90;;;12.40;99.90;;;;;;5119415;28;20403;-80
2022/02/17 01:27:14;;;;;;;1.10;1.00;;;12.40;99.90;;;;;;5119657;28;20573;-81
2022/02/17 01:29:59;;;;;;;0.80;0.80;;;12.40;99.90;;;;;;5120170;28;20730;-80
2022/02/17 01:32:44;;;;;;;0.87;0.87;;;12.40;99.90;;;;;;5119601;28;20403;-81
2022/02/17 01:35:28;;;;;;;0.90;0.90;;;12.40;99.90;;;;;;5119836;28;20419;-81
2022/02/17 01:38:13;;;;;;;1.10;1.00;;;12.40;99.90;;;;;;5119859;28;20433;-80
2022/02/17 01:40:58;;;;;;;1.00;0.90;;;12.40;99.90;;;;;;5104188;28;20445;-80
2022/02/17 01:43:43;;;;;;;0.90;0.90;;;12.40;99.90;;;;;;5119979;28;20383;-80
2022/02/17 01:46:38;;;;;;;0.90;0.90;;;12.40;99.90;;;;;;5119930;28;20427;-81
2022/02/17 01:49:23;;;;;;;0.80;0.80;;;12.30;99.90;;;;;;5120096;28;20399;-80
2022/02/17 01:52:09;;;;;;;0.90;0.90;;;12.30;99.90;;;;;;5103924;28;20379;-81
2022/02/17 01:54:54;;;;;;;1.93;1.00;;;12.40;99.90;;;;;;5104209;28;20372;-80
2022/02/17 01:57:40;;;;;;;1.27;1.00;;;12.30;99.90;;;;;;5119476;28;20479;-80
2022/02/17 02:00:24;;;;;;;0.80;0.80;;;12.50;99.90;;;;;;5119855;28;20368;-80
2022/02/17 02:03:09;;;;;;;0.90;0.90;;;12.30;99.90;;;;;;5119451;28;20419;-80
2022/02/17 02:05:54;;;;;;;0.90;0.90;;;12.40;99.90;;;;;;5118593;28;20478;-80
2022/02/17 02:08:38;;;;;;;1.00;1.00;;;12.40;99.90;;;;;;5118685;28;20482;-80
2022/02/17 02:11:23;;;;;;;1.00;0.90;;;12.60;99.90;;;;;;5102799;28;20425;-81
2022/02/17 02:14:16;;;;;;;1.00;0.90;;;12.50;99.90;;;;;;5118832;28;20390;-80
2022/02/17 02:17:03;;;;;;;1.00;0.90;;;12.50;99.90;;;;;;5118428;28;20379;-81
2022/02/17 02:19:48;;;;;;;0.90;0.90;;;12.50;99.90;;;;;;5118718;28;20493;-82
2022/02/17 02:22:33;;;;;;;1.13;1.07;;;12.50;99.90;;;;;;5117926;28;20418;-81
2022/02/17 02:25:18;;;;;;;1.87;1.07;;;12.50;99.90;;;;;;5118256;28;20444;-81
2022/02/17 02:28:02;;;;;;;0.90;0.90;;;12.60;99.90;;;;;;5103031;28;20430;-81
2022/02/17 02:30:47;;;;;;;1.20;1.10;;;12.50;99.90;;;;;;5118139;28;20429;-82
2022/02/17 02:33:31;;;;;;;1.10;1.00;;;12.50;99.90;;;;;;5118671;28;20441;-81
2022/02/17 02:36:16;;;;;;;0.90;0.90;;;12.50;99.90;;;;;;5102887;28;20379;-81
2022/02/17 02:39:01;;;;;;;1.10;1.00;;;12.50;99.90;;;;;;5118173;28;20394;-81
2022/02/17 02:41:45;;;;;;;1.00;0.90;;;12.50;99.90;;;;;;5118671;28;20475;-82
2022/02/17 02:44:30;;;;;;;0.90;0.90;;;12.50;99.90;;;;;;5118372;28;20382;-81
2022/02/17 02:47:15;;;;;;;0.80;0.80;;;12.40;99.90;;;;;;5117923;28;20791;-82
2022/02/17 02:50:00;;;;;;;0.90;0.90;;;12.40;99.90;;;;;;5118245;28;20395;-81
2022/02/17 02:52:44;;;;;;;0.90;0.90;;;12.30;99.90;;;;;;5118028;28;20391;-82
2022/02/17 02:55:30;;;;;;;0.90;0.90;;;12.30;99.90;;;;;;5117930;28;20396;-81
2022/02/17 02:58:16;;;;;;;1.30;0.90;;;12.30;99.90;;;;;;5118108;28;20385;-81
2022/02/17 03:01:01;;;;;;;0.80;0.80;;;12.30;99.90;;;;;;5121240;28;20383;-82
2022/02/17 03:03:49;;;;;;;6.43;1.00;;;12.30;99.90;;;;;;5118653;28;20922;-82
2022/02/17 03:06:34;;;;;;;0.90;0.90;;;12.20;99.90;;;;;;5118149;28;20387;-82
2022/02/17 03:09:19;;;;;;;0.90;0.90;;;12.20;99.90;;;;;;5118297;28;20539;-81
2022/02/17 03:12:05;;;;;;;0.97;0.87;;;12.20;99.90;;;;;;5125570;28;20383;-82
2022/02/17 03:14:49;;;;;;;0.90;0.90;;;12.20;99.90;;;;;;5124120;28;20461;-82
2022/02/17 03:17:34;;;;;;;1.67;1.00;;;12.30;99.90;;;;;;5125162;28;20383;-82
2022/02/17 03:20:19;;;;;;;0.90;0.90;;;12.30;99.90;;;;;;5124994;28;20501;-82
2022/02/17 03:23:04;;;;;;;1.00;1.00;;;12.40;99.90;;;;;;5124971;28;20514;-82
2022/02/17 03:25:49;;;;;;;0.90;0.90;;;12.30;99.90;;;;;;5125672;28;20744;-82
2022/02/17 03:28:33;;;;;;;0.90;0.90;;;12.20;99.90;;;;;;5124661;28;20511;-82
2022/02/17 03:31:18;;;;;;;1.03;0.90;;;12.20;99.90;;;;;;5126754;28;20390;-82
2022/02/17 03:34:03;;;;;;;1.20;1.10;;;12.20;99.90;;;;;;5125404;28;20447;-81
2022/02/17 03:36:48;;;;;;;1.00;1.00;;;12.30;99.90;;;;;;5124348;28;20479;-82
2022/02/17 03:39:33;;;;;;;0.90;0.90;;;12.30;99.90;;;;;;5124147;28;20383;-81
2022/02/17 03:42:17;;;;;;;1.20;0.93;;;12.20;99.90;;;;;;5124130;28;20387;-82
2022/02/17 03:45:02;;;;;;;0.80;0.80;;;12.10;99.90;;;;;;5124310;28;20414;-81
2022/02/17 03:47:47;;;;;;;0.80;0.80;;;12.10;99.90;;;;;;5108721;28;20454;-81
2022/02/17 03:50:31;;;;;;;0.80;0.80;;;12.20;99.90;;;;;;5124481;28;20421;-82
2022/02/17 03:53:17;;;;;;;0.90;0.90;;;12.20;99.90;;;;;;5124110;28;20387;-82
2022/02/17 03:56:01;;;;;;;0.83;0.83;;;12.20;99.90;;;;;;5123953;28;20444;-81
2022/02/17 04:01:41;;;;;;;0.80;0.80;;;12.30;99.90;;;;;;5124438;28;20455;-82
2022/02/17 04:04:25;;;;;;;0.90;0.90;;;12.30;99.90;;;;;;5124548;28;20460;-82
2022/02/17 04:07:10;;;;;;;0.90;0.90;;;12.30;99.90;;;;;;5123946;28;20379;-81
2022/02/17 04:09:55;;;;;;;0.80;0.80;;;12.30;99.90;;;;;;5124951;28;20387;-82
2022/02/17 04:12:39;;;;;;;2.03;1.57;;;12.20;99.90;;;;;;5125407;28;20471;-82
2022/02/17 04:15:24;;;;;;;1.00;0.90;;;12.30;99.90;;;;;;5129544;28;20409;-81
2022/02/17 04:18:08;;;;;;;0.90;0.90;;;12.30;99.90;;;;;;5129241;28;20432;-82
2022/02/17 04:20:55;;;;;;;1.83;0.90;;;12.30;99.90;;;;;;5127613;28;20395;-82
2022/02/17 04:23:44;;;;;;;0.90;0.90;;;12.40;99.90;;;;;;5125293;28;20386;-82
2022/02/17 04:26:28;;;;;;;0.97;0.97;;;12.40;99.90;;;;;;5125499;28;20426;-81
2022/02/17 04:29:13;;;;;;;1.00;1.00;;;12.40;99.90;;;;;;5121492;28;20438;-83
2022/02/17 04:31:57;;;;;;;1.20;1.10;;;12.40;99.90;;;;;;5120790;28;20387;-82
2022/02/17 04:34:41;;;;;;;0.97;0.93;;;12.40;99.90;;;;;;5120842;28;20773;-81
2022/02/17 04:37:26;;;;;;;0.90;0.90;;;12.40;99.90;;;;;;5120728;28;20444;-82
2022/02/17 04:40:10;;;;;;;1.00;1.00;;;12.40;99.90;;;;;;5120633;28;20391;-81
2022/02/17 04:42:55;;;;;;;1.10;1.00;;;12.40;99.90;;;;;;5121040;28;20395;-82
2022/02/17 04:45:39;;;;;;;1.63;1.03;;;12.30;99.90;;;;;;5118932;28;20808;-81
2022/02/17 04:48:24;;;;;;;1.00;0.97;;;12.40;99.90;;;;;;5099633;28;20915;-82
2022/02/17 04:51:08;;;;;;;1.00;0.90;;;12.40;99.90;;;;;;5100100;28;20461;-82
2022/02/17 04:53:53;;;;;;;0.80;0.80;;;12.30;99.90;;;;;;5099923;28;20817;-82
2022/02/17 04:56:37;;;;;;;1.20;1.10;;;12.30;99.90;;;;;;5099518;28;20411;-82
2022/02/17 04:59:22;;;;;;;2.60;1.10;;;12.30;99.90;;;;;;5099492;28;20392;-82
2022/02/17 05:02:06;;;;;;;2.43;1.03;;;12.40;99.90;;;;;;5099656;28;20469;-82
2022/02/17 05:04:51;;;;;;;1.33;1.00;;;12.50;99.90;;;;;;5099407;28;20931;-81
2022/02/17 05:07:35;;;;;;;1.00;0.90;;;12.40;99.90;;;;;;5099944;28;20443;-81
2022/02/17 05:10:20;;;;;;;1.27;1.00;;;12.40;99.90;;;;;;5100141;28;20445;-82
2022/02/17 05:13:05;;;;;;;2.13;1.60;;;12.30;99.90;;;;;;5099454;28;20383;-82
2022/02/17 05:15:50;;;;;;;1.30;1.20;;;12.30;99.90;;;;;;5100020;28;20384;-81
2022/02/17 05:18:35;;;;;;;2.27;0.90;;;12.30;99.90;;;;;;5099878;28;20800;-81
2022/02/17 05:21:19;;;;;;;3.77;1.17;;;12.30;99.90;;;;;;5099764;28;20392;-81
2022/02/17 05:24:04;;;;;;;1.87;1.60;;;12.30;99.90;;;;;;5099536;28;20473;-81
2022/02/17 05:26:49;;;;;;;1.13;1.03;;;12.30;99.90;;;;;;5104193;28;20419;-81
2022/02/17 05:29:34;;;;;;;2.27;1.40;;;12.10;99.90;;;;;;5112282;28;20408;-81
2022/02/17 05:32:19;;;;;;;2.30;1.57;;;12.10;99.90;;;;;;5112289;28;20394;-81
2022/02/17 05:35:05;;;;;;;2.40;1.37;;;12.10;99.90;;;;;;5119283;28;20371;-81
2022/02/17 05:37:51;;;;;;;4.40;1.27;;;12.10;99.90;;;;;;5119464;28;20417;-81
2022/02/17 05:40:36;;;;;;;2.90;1.40;;;12.00;99.90;;;;;;5119528;28;20410;-81
2022/02/17 05:43:21;;;;;;;1.30;1.10;;;12.00;99.90;;;;;;5119509;28;20901;-82
2022/02/17 05:46:06;;;;;;;7.40;1.43;;;11.90;99.90;;;;;;5118739;28;20929;-82
2022/02/17 05:48:50;;;;;;;1.57;1.47;;;11.90;99.90;;;;;;5119114;28;20872;-81
2022/02/17 05:51:34;;;;;;;2.40;1.50;;;11.80;99.90;;;;;;5103418;28;20379;-81
2022/02/17 05:54:19;;;;;;;5.67;1.97;;;11.80;99.90;;;;;;5118794;28;20503;-81
2022/02/17 05:57:04;;;;;;;6.27;1.80;;;11.70;99.90;;;;;;5103614;28;20433;-82
2022/02/17 05:59:48;;;;;;;9.30;1.83;;;11.70;99.90;;;;;;5103787;28;20403;-81
2022/02/17 06:02:32;;;;;;;2.47;2.27;;;11.60;99.90;;;;;;5121979;28;20434;-81
2022/02/17 06:05:17;;;;;;;7.03;2.20;;;11.60;99.90;;;;;;5120611;28;20467;-82
2022/02/17 06:08:02;;;;;;;4.73;2.10;;;11.60;99.90;;;;;;5119297;28;20478;-81
2022/02/17 06:10:46;;;;;;;5.67;1.80;;;11.50;99.90;;;;;;5118707;28;20387;-81
2022/02/17 06:13:31;;;;;;;3.13;1.30;;;11.50;99.90;;;;;;5118558;28;20387;-81
2022/02/17 06:16:15;;;;;;;4.03;2.37;;;11.40;99.90;;;;;;5118343;28;20437;-81
2022/02/17 06:18:59;;;;;;;1.90;1.37;;;11.40;99.90;;;;;;5102640;28;20440;-81
2022/02/17 06:21:44;;;;;;;3.47;2.03;;;11.40;99.90;;;;;;5102991;28;20512;-81
2022/02/17 06:24:28;;;;;;;2.10;1.50;;;11.40;99.90;;;;;;5118291;28;20763;-81
2022/02/17 06:27:13;;;;;;;2.50;1.37;;;11.40;99.90;;;;;;5118315;28;20751;-81
2022/02/17 06:29:57;;;;;;;3.37;1.63;;;11.40;99.90;;;;;;5105598;28;20467;-81
2022/02/17 06:32:57;;;;;;;4.03;2.43;;;11.40;99.90;;;;;;5080073;28;20396;-82
2022/02/17 06:35:41;;;;;;;12.60;3.57;;;11.40;99.90;;;;;;5071431;28;20462;-82
2022/02/17 06:38:27;;;;;;;6.70;2.43;;;11.40;99.90;;;;;;5077803;28;20467;-81
2022/02/17 06:41:18;;;;;;;4.20;1.70;;;11.40;99.90;;;;;;5078233;28;20455;-81
2022/02/17 06:44:02;;;;;;;17.00;2.80;;;11.40;99.90;;;;;;5111017;28;20914;-82
2022/02/17 06:46:47;;;;;;;4.30;1.80;;;11.40;99.90;;;;;;5115758;28;20384;-81
2022/02/17 06:49:32;;;;;;;8.10;2.30;;;11.30;99.90;;;;;;5077173;28;20420;-81
2022/02/17 06:52:17;;;;;;;4.73;2.07;;;11.30;99.90;;;;;;5078412;28;20421;-82
2022/02/17 06:55:02;;;;;;;6.73;3.33;;;11.30;99.90;;;;;;5077964;28;20427;-81
2022/02/17 06:57:47;;;;;;;3.20;2.30;;;11.40;99.90;;;;;;5092054;28;20406;-82
2022/02/17 07:00:32;;;;;;;11.97;5.57;;;11.40;99.90;;;;;;5094474;28;20416;-81
2022/02/17 07:03:16;;;;;;;6.10;2.00;;;11.40;99.90;;;;;;5109555;28;20412;-82
2022/02/17 07:06:01;;;;;;;4.50;3.00;;;11.40;99.90;;;;;;5091957;28;20559;-82
2022/02/17 07:08:45;;;;;;;7.33;1.80;;;11.40;99.90;;;;;;5099482;28;20485;-81
2022/02/17 07:11:30;;;;;;;8.30;2.50;;;11.50;99.90;;;;;;5088340;28;20418;-81
2022/02/17 07:14:15;;;;;;;4.27;1.97;;;11.40;99.90;;;;;;5080852;28;20793;-81
2022/02/17 07:16:59;;;;;;;1.97;1.83;;;11.40;99.90;;;;;;5089078;28;20420;-82
2022/02/17 07:19:44;;;;;;;7.77;2.30;;;11.40;99.90;;;;;;5091209;28;20409;-81
2022/02/17 07:22:29;;;;;;;8.30;2.50;;;11.40;99.90;;;;;;5080759;28;20435;-80
2022/02/17 07:25:14;;;;;;;2.93;2.03;;;11.50;99.90;;;;;;5106354;28;20495;-79
2022/02/17 07:27:58;;;;;;;9.20;2.27;;;11.50;99.90;;;;;;5105221;28;20464;-79
2022/02/17 07:30:44;;;;;;;9.60;2.10;;;11.50;99.90;;;;;;5105658;28;20435;-81
2022/02/17 07:33:29;;;;;;;7.87;3.00;;;11.50;99.90;;;;;;5088504;28;20531;-80
2022/02/17 07:36:13;;;;;;;6.67;2.60;;;11.50;99.90;;;;;;5082597;28;20433;-81
2022/02/17 07:38:58;;;;;;;10.93;2.97;;;11.40;99.90;;;;;;5095752;28;20744;-81
2022/02/17 07:41:43;;;;;;;3.10;2.07;;;11.40;99.90;;;;;;5094872;28;20976;-80
2022/02/17 07:44:29;;;;;;;7.63;1.70;;;11.40;99.90;;;;;;5102961;28;20440;-81
2022/02/17 07:47:13;;;;;;;4.83;1.90;;;11.40;99.90;;;;;;5083307;28;20404;-81
2022/02/17 07:49:58;;;;;;;8.00;2.23;;;11.50;99.90;;;;;;5095660;28;20458;-81
2022/02/17 07:52:45;;;;;;;8.27;3.47;;;11.40;99.90;;;;;;5090002;28;20996;-82
2022/02/17 07:55:29;;;;;;;9.50;2.30;;;11.40;99.90;;;;;;5094495;28;20466;-81
2022/02/17 07:58:17;;;;;;;9.03;2.73;;;11.40;99.90;;;;;;5089641;28;20455;-81
2022/02/17 08:01:01;;;;;;;3.80;1.93;;;11.40;99.90;;;;;;5092080;28;20584;-80
2022/02/17 08:03:46;;;;;;;5.23;2.23;;;11.40;99.90;;;;;;5093236;28;20422;-81
2022/02/17 08:06:30;;;;;;;2.80;1.80;;;11.20;99.90;;;;;;5104933;28;20431;-81
2022/02/17 08:09:15;;;;;;;13.27;2.90;;;11.20;99.90;;;;;;5096180;27;20846;-81
2022/02/17 08:12:00;;;;;;;6.40;3.53;;;11.20;99.90;;;;;;5107140;27;20505;-81
2022/02/17 08:14:45;;;;;;;7.17;2.27;;;11.30;99.90;;;;;;5111509;28;20447;-80
2022/02/17 08:17:29;;;;;;;4.63;2.37;;;11.40;99.90;;;;;;5109123;27;20476;-80
2022/02/17 08:20:14;;;;;;;5.13;2.50;;;11.50;99.90;;;;;;5095980;28;20765;-79
2022/02/17 08:22:58;;;;;;;8.87;2.70;;;11.60;99.90;;;;;;5107071;28;20844;-78
2022/02/17 08:25:43;;;;;;;9.77;2.77;;;11.80;99.90;;;;;;5111189;27;20471;-80
2022/02/17 08:28:28;;;;;;;17.73;3.40;;;11.50;99.90;;;;;;5101685;28;21002;-82
2022/02/17 08:31:13;;;;;;;4.97;3.13;;;11.50;99.90;;;;;;5114100;27;20443;-82
2022/02/17 08:34:03;;;;;;;3.67;2.60;;;11.60;99.90;;;;;;5109894;27;20435;-82
2022/02/17 08:36:48;;;;;;;8.37;2.60;;;11.60;99.90;;;;;;5076908;28;20422;-81
2022/02/17 08:39:33;;;;;;;3.53;1.73;;;11.90;99.90;;;;;;5114019;27;20445;-81
2022/02/17 08:42:18;;;;;;;6.17;2.80;;;11.80;99.90;;;;;;5103461;27;20858;-81
2022/02/17 08:45:04;;;;;;;4.00;1.80;;;11.60;99.90;;;;;;5122098;27;20778;-81
2022/02/17 08:47:48;;;;;;;4.07;2.73;;;11.80;99.90;;;;;;5099522;28;20459;-80
2022/02/17 08:50:34;;;;;;;6.10;2.43;;;11.90;99.90;;;;;;5098145;28;20408;-80
2022/02/17 08:53:20;;;;;;;6.43;2.47;;;12.50;99.90;;;;;;5095899;28;20391;-80
2022/02/17 08:56:04;;;;;;;7.53;2.53;;;12.60;99.90;;;;;;5119074;27;20407;-81
2022/02/17 08:58:50;;;;;;;13.73;3.33;;;12.80;99.90;;;;;;5110026;27;20461;-80
2022/02/17 09:01:34;;;;;;;7.87;2.13;;;12.60;99.90;;;;;;5097532;28;20446;-80
2022/02/17 09:04:19;;;;;;;4.70;3.00;;;12.10;99.90;;;;;;5097607;28;20450;-80
2022/02/17 09:07:04;;;;;;;5.43;2.00;;;11.60;99.90;;;;;;5124083;27;20903;-80
2022/02/17 09:09:48;;;;;;;3.10;1.90;;;11.50;99.90;;;;;;5116439;27;20434;-80
2022/02/17 09:12:35;;;;;;;10.80;2.77;;;12.30;99.90;;;;;;5132035;27;20470;-79
2022/02/17 09:15:19;;;;;;;6.53;2.30;;;12.70;99.90;;;;;;5096702;28;20415;-81
2022/02/17 09:18:05;;;;;;;5.87;2.40;;;13.80;99.90;;;;;;5104486;28;20410;-79
2022/02/17 09:20:49;;;;;;;6.50;2.17;;;14.20;99.90;;;;;;5112200;28;20465;-80
2022/02/17 09:23:34;;;;;;;5.13;2.00;;;14.60;99.90;;;;;;5110031;28;20611;-80
2022/02/17 09:26:19;;;;;;;8.33;2.50;;;14.50;99.90;;;;;;5108927;28;20448;-80
2022/02/17 09:29:08;;;;;;;11.50;2.50;;;14.40;99.90;;;;;;5112689;27;20602;-81
2022/02/17 09:31:52;;;;;;;7.43;3.00;;;13.90;99.90;;;;;;5089938;28;20407;-81
2022/02/17 09:34:38;;;;;;;10.30;2.20;;;14.80;99.90;;;;;;5104624;28;20757;-80
2022/02/17 09:37:22;;;;;;;7.07;3.10;;;15.00;99.90;;;;;;5092438;28;20466;-81
2022/02/17 09:40:08;;;;;;;7.23;2.97;;;15.50;99.90;;;;;;5105942;28;20403;-80
2022/02/17 09:42:53;;;;;;;8.27;3.10;;;15.10;99.90;;;;;;5089957;27;20388;-80
2022/02/17 09:45:43;;;;;;;5.53;2.40;;;14.80;99.90;;;;;;5112029;27;20697;-80
2022/02/17 09:48:28;;;;;;;8.60;3.30;;;13.70;99.90;;;;;;5117068;27;20455;-81
2022/02/17 09:51:13;;;;;;;6.10;2.67;;;13.30;99.90;;;;;;5112342;28;20441;-80
2022/02/17 09:53:59;;;;;;;8.60;3.63;;;12.80;99.90;;;;;;5107226;28;20485;-80
2022/02/17 09:56:45;;;;;;;10.83;3.00;;;13.10;99.90;;;;;;5089162;28;20478;-79
2022/02/17 09:59:31;;;;;;;8.07;2.53;;;13.60;99.90;;;;;;5087823;28;20419;-79
2022/02/17 10:02:25;;;;;;;9.67;2.53;;;13.90;99.90;;;;;;5088099;27;20457;-79
2022/02/17 10:05:11;;;;;;;4.17;2.53;;;13.70;99.90;;;;;;5126905;27;20834;-80
2022/02/17 10:07:55;;;;;;;7.70;2.93;;;13.70;99.90;;;;;;5102130;28;20459;-79
2022/02/17 10:10:41;;;;;;;6.60;2.90;;;14.40;99.90;;;;;;5071024;28;20946;-80
2022/02/17 10:13:25;;;;;;;2.70;2.13;;;14.60;99.90;;;;;;5087307;28;20398;-80
2022/02/17 10:16:09;;;;;;;5.87;2.93;;;14.40;99.90;;;;;;5086600;28;20422;-78
2022/02/17 10:19:14;;;;;;;13.73;3.90;;;14.70;99.90;;;;;;5009222;28;20956;-82
2022/02/17 10:22:23;;;;;;;6.50;2.20;;;14.90;99.90;;;;;;4952143;28;20926;-81
2022/02/17 10:25:09;;;;;;;6.13;2.10;;;14.30;99.90;;;;;;4930941;28;20499;-80
2022/02/17 10:27:56;;;;;;;7.37;2.97;;;14.40;99.90;;;;;;4946278;29;20515;-80
2022/02/17 10:30:41;;;;;;;6.20;3.00;;;14.00;99.90;;;;;;4938347;28;20970;-80
2022/02/17 10:33:37;;;;;;;18.33;3.07;;;14.10;99.90;;;;;;4955492;28;20475;-80
2022/02/17 10:36:43;;;;;;;7.27;2.73;;;13.60;99.90;;;;;;4939134;29;20447;-80
2022/02/17 10:39:34;;;;;;;7.77;2.90;;;16.30;99.90;;;;;;4915697;29;20423;-81
2022/02/17 10:42:18;;;;;;;10.97;2.60;;;17.90;99.90;;;;;;4907186;29;20524;-79
2022/02/17 10:45:22;;;;;;;2.80;2.20;;;18.10;99.90;;;;;;4910803;29;20527;-81
2022/02/17 10:48:17;;;;;;;3.23;2.27;;;17.00;99.90;;;;;;4891569;29;20549;-81
2022/02/17 10:51:05;;;;;;;4.63;2.27;;;16.90;99.90;;;;;;4991899;28;20432;-81
2022/02/17 10:53:58;;;;;;;5.27;2.50;;;16.80;99.90;;;;;;5039248;28;20482;-79
2022/02/17 10:56:51;;;;;;;6.83;2.23;;;16.90;99.90;;;;;;5038493;28;21129;-79
2022/02/17 11:02:41;;;;;;;10.00;3.30;;;17.00;99.90;;;;;;5021376;28;20469;-79
2022/02/17 11:05:26;;;;;;;9.33;2.77;;;17.60;99.90;;;;;;5048889;28;20527;-79
2022/02/17 11:08:13;;;;;;;4.93;2.70;;;17.60;99.90;;;;;;5047194;28;20458;-79
2022/02/17 11:10:57;;;;;;;6.57;2.43;;;17.50;93.50;;;;;;5068447;28;20419;-79
2022/02/17 11:13:44;;;;;;;9.47;3.50;;;17.70;92.30;;;;;;5099129;28;22045;-81
2022/02/17 11:16:30;;;;;;;9.07;2.30;;;16.50;90.70;;;;;;5084505;28;20439;-80
2022/02/17 11:19:16;;;;;;;6.40;2.50;;;16.70;91.10;;;;;;5108455;28;20398;-81
2022/02/17 11:22:02;;;;;;;17.03;3.37;;;17.20;88.80;;;;;;5015287;28;20461;-80
2022/02/17 11:24:50;;;;;;;4.73;2.57;;;17.20;87.80;;;;;;5032317;28;20429;-81
2022/02/17 11:27:57;;;;;;;8.70;3.83;;;18.10;93.60;;;;;;5024064;28;20473;-81
2022/02/17 11:30:55;;;;;;;7.17;3.80;;;18.70;97.30;;;;;;5054888;28;20460;-81
2022/02/17 11:33:42;;;;;;;6.20;2.40;;;18.50;97.40;;;;;;5027540;28;20567;-81
2022/02/17 11:36:30;;;;;;;12.47;3.37;;;19.50;95.70;;;;;;5032538;28;20511;-81
2022/02/17 11:39:14;;;;;;;7.38;2.78;;;20.00;94.70;;;;;;5041407;28;20431;-81
2022/02/17 11:42:01;;;;;;;14.77;3.33;;;19.50;82.90;;;;;;5032372;28;20211;-81
2022/02/17 11:45:16;;;;;;;6.77;2.47;;;18.10;87.10;;;;;;5030078;28;20429;-81
2022/02/17 11:48:09;;;;;;;5.27;2.63;;;17.80;81.20;;;;;;5042980;28;20453;-81
2022/02/17 11:51:11;;;;;;;5.60;2.20;;;16.00;80.30;;;;;;5017919;28;20437;-80
2022/02/17 11:54:19;;;;;;;12.10;4.40;;;15.20;87.30;;;;;;5090143;28;20412;-81
2022/02/17 11:57:25;;;;;;;8.30;3.40;;;14.60;91.80;;;;;;5094062;28;20553;-80
2022/02/17 12:00:34;;;;;;;15.47;2.53;;;14.00;99.90;;;;;;5082617;28;20419;-81
2022/02/17 12:03:50;;;;;;;7.93;3.17;;;13.40;99.90;;;;;;5077811;28;20454;-81
2022/02/17 12:06:41;;;;;;;7.70;2.50;;;12.40;99.90;;;;;;5060448;28;20460;-80
2022/02/17 12:09:41;;;;;;;7.67;2.70;;;11.80;99.90;;;;;;5044959;28;20838;-81
2022/02/17 12:12:37;;;;;;;9.30;2.10;;;11.20;99.90;;;;;;5066378;28;20491;-81
2022/02/17 12:15:24;;;;;;;11.03;1.93;;;11.20;99.90;;;;;;5056322;28;20429;-81
2022/02/17 12:18:08;;;;;;;3.97;1.73;;;11.00;99.90;;;;;;5030577;28;20413;-80
2022/02/17 12:20:57;;;;;;;2.23;1.50;;;11.10;99.90;;;;;;5039105;28;20420;-80
2022/02/17 12:23:45;;;;;;;9.47;2.30;;;11.10;99.90;;;;;;5059861;28;20495;-79
2022/02/17 12:26:41;;;;;;;10.63;2.37;;;11.10;99.90;;;;;;5071611;28;20432;-80
2022/02/17 12:29:33;;;;;;;6.10;2.27;;;11.40;99.90;;;;;;5082609;28;21017;-80
2022/02/17 12:32:20;;;;;;;7.70;1.90;;;11.40;99.90;;;;;;5073750;28;20497;-80
2022/02/17 12:35:06;;;;;;;3.20;1.93;;;11.30;99.90;;;;;;5082275;28;20443;-79
2022/02/17 12:38:06;;;;;;;5.10;1.70;;;11.00;99.90;;;;;;5064968;28;20462;-80
2022/02/17 12:40:52;;;;;;;10.80;3.20;;;10.70;99.90;;;;;;5073054;28;20453;-79
2022/02/17 12:43:39;;;;;;;4.63;2.43;;;10.60;99.90;;;;;;5078057;28;20424;-80
2022/02/17 12:46:24;;;;;;;2.77;2.27;;;10.30;99.90;;;;;;5064209;28;20738;-80
2022/02/17 12:49:10;;;;;;;10.70;1.93;;;10.10;99.90;;;;;;5079663;28;20475;-79
2022/02/17 12:52:16;;;;;;;4.40;2.20;;;10.00;99.90;;;;;;5038080;28;20433;-80
2022/02/17 12:55:01;;;;;;;9.67;2.53;;;11.30;99.90;;;;;;5080447;28;20451;-79
2022/02/17 12:57:54;;;;;;;8.30;2.37;;;13.00;99.90;;;;;;5057489;28;20448;-78
2022/02/17 13:00:39;;;;;;;2.57;1.87;;;13.20;99.90;;;;;;5067569;28;20610;-79
2022/02/17 13:03:37;;;;;;;5.43;2.60;;;12.40;99.90;;;;;;5068320;28;20428;-80
2022/02/17 13:06:26;;;;;;;8.83;2.80;;;11.90;99.90;;;;;;5078710;28;20441;-80
2022/02/17 13:09:14;;;;;;;4.50;2.70;;;11.90;99.90;;;;;;5077995;28;20468;-79
2022/02/17 13:12:03;;;;;;;11.57;2.27;;;11.80;99.90;;;;;;5051994;28;20436;-79
2022/02/17 13:14:51;;;;;;;9.50;3.30;;;11.70;99.90;;;;;;5059708;28;20425;-78
2022/02/17 13:17:39;;;;;;;10.60;2.87;;;11.50;99.90;;;;;;5078830;28;20861;-80
2022/02/17 13:20:28;;;;;;;5.97;2.00;;;11.40;99.90;;;;;;5045529;28;20510;-78
2022/02/17 13:23:22;;;;;;;10.30;3.00;;;11.20;99.90;;;;;;5037037;28;20456;-80
2022/02/17 13:26:24;;;;;;;5.70;2.93;;;11.40;99.90;;;;;;5074914;28;20840;-80
2022/02/17 13:29:14;;;;;;;9.93;2.23;;;12.10;99.90;;;;;;5037005;28;20464;-79
2022/02/17 13:31:58;;;;;;;14.70;3.03;;;12.80;99.90;;;;;;5069543;28;20428;-79
2022/02/17 13:34:43;;;;;;;7.30;2.03;;;13.30;99.90;;;;;;5049482;28;20568;-80
2022/02/17 13:37:43;;;;;;;11.93;3.43;;;13.20;99.90;;;;;;5058192;28;20527;-79
2022/02/17 13:40:29;;;;;;;3.73;2.33;;;12.80;99.90;;;;;;5033163;28;20442;-80
2022/02/17 13:43:15;;;;;;;9.80;3.80;;;12.60;99.90;;;;;;5008614;28;20462;-78
2022/02/17 13:46:03;;;;;;;20.47;4.53;;;12.20;99.90;;;;;;4988154;28;20491;-79
2022/02/17 13:48:48;;;;;;;3.80;2.43;;;11.70;99.90;;;;;;4997046;28;20569;-79
2022/02/17 13:51:44;;;;;;;11.27;2.87;;;11.80;99.90;;;;;;4983880;28;20436;-79
2022/02/17 13:54:50;;;;;;;3.00;2.70;;;11.50;99.90;;;;;;4996021;28;20432;-80
2022/02/17 13:57:36;;;;;;;7.67;2.93;;;11.40;99.90;;;;;;5005032;28;20534;-81
2022/02/17 14:00:28;;;;;;;7.50;2.30;;;11.50;99.90;;;;;;5014878;28;20412;-80
2022/02/17 14:03:38;;;;;;;5.10;1.90;;;11.70;99.90;;;;;;4994706;28;20450;-80
2022/02/17 14:06:24;;;;;;;13.97;3.37;;;11.60;99.90;;;;;;4952902;28;20478;-80
2022/02/17 14:09:08;;;;;;;13.40;3.37;;;11.10;99.90;;;;;;4975629;28;20460;-78
2022/02/17 14:11:53;;;;;;;11.70;3.17;;;10.70;99.90;;;;;;4970142;28;20425;-80
2022/02/17 14:14:59;;;;;;;3.70;2.10;;;10.50;99.90;;;;;;4983341;28;20433;-81
2022/02/17 14:17:44;;;;;;;5.83;1.87;;;10.90;99.90;;;;;;4976670;28;20818;-80
2022/02/17 14:20:29;;;;;;;3.47;1.70;;;11.00;99.90;;;;;;4951556;28;20455;-80
2022/02/17 14:23:13;;;;;;;8.30;3.63;;;11.00;99.90;;;;;;4960178;28;20602;-80
2022/02/17 14:25:59;;;;;;;11.60;2.53;;;10.90;99.90;;;;;;4937691;28;20869;-80
2022/02/17 14:28:43;;;;;;;5.53;2.20;;;10.80;99.90;;;;;;4960536;28;20465;-80
2022/02/17 14:31:28;;;;;;;8.20;2.90;;;10.90;99.90;;;;;;4942969;28;20522;-79
2022/02/17 14:34:12;;;;;;;5.67;2.57;;;10.90;99.90;;;;;;4963902;29;20463;-81